createdAt,value
2022-11-07T00:00:12.664Z,100687.78
2022-11-07T00:02:14.806Z,100695.66
2022-11-07T00:04:16.409Z,100691.31
2022-11-07T00:06:17.839Z,100689.47
2022-11-07T00:08:19.266Z,100693.88
2022-11-07T00:10:20.712Z,100699.16
2022-11-07T00:12:22.140Z,100706.16
2022-11-07T00:14:23.890Z,100713.19
2022-11-07T00:16:26.667Z,100704.34
2022-11-07T00:18:28.287Z,100706.09
2022-11-07T00:20:29.709Z,100713.09
2022-11-07T00:22:31.183Z,100721.81
2022-11-07T00:24:32.634Z,100707.69
2022-11-07T00:26:34.466Z,100717.38
2022-11-07T00:28:37.428Z,100710.31
2022-11-07T00:30:38.863Z,100712.09
2022-11-07T00:32:40.276Z,100709.44
2022-11-07T00:34:41.726Z,100717.41
2022-11-07T00:36:43.182Z,100714.78
2022-11-07T00:38:45.066Z,100721.81
2022-11-07T00:40:56.841Z,100714.78
2022-11-07T00:42:58.305Z,100722.69
2022-11-07T00:44:59.731Z,100722.66
2022-11-07T00:47:01.178Z,100736.66
2022-11-07T00:49:02.622Z,100729.56
2022-11-07T00:51:11.831Z,100730.31
2022-11-07T00:53:13.696Z,100725.88
2022-11-07T00:55:15.449Z,100729.28
2022-11-07T00:57:16.886Z,100734.53
2022-11-07T00:59:18.574Z,100735.28
2022-11-07T01:01:22.829Z,100724.63
2022-11-07T01:03:43.424Z,100730.78
2022-11-07T01:05:58.779Z,100728.13
2022-11-07T01:08:00.238Z,100736.91
2022-11-07T01:10:02.205Z,100736.06
2022-11-07T01:12:04.108Z,100729.91
2022-11-07T01:14:07.079Z,100739.59
2022-11-07T01:16:10.245Z,100747.47
2022-11-07T01:18:11.759Z,100752.66
2022-11-07T01:20:13.262Z,100752.56
2022-11-07T01:22:14.703Z,100753.38
2022-11-07T01:24:16.858Z,100754.22
2022-11-07T01:26:18.877Z,100740.97
2022-11-07T01:28:20.308Z,100740.00
2022-11-07T01:30:21.743Z,100746.94
2022-11-07T01:32:23.193Z,100737.19
2022-11-07T01:34:24.617Z,100739.78
2022-11-07T01:36:26.749Z,100742.38
2022-11-07T01:38:28.567Z,100742.28
2022-11-07T01:40:30.518Z,100741.38
2022-11-07T01:42:32.214Z,100742.22
2022-11-07T01:44:42.517Z,100746.56
2022-11-07T01:46:45.194Z,100753.47
2022-11-07T01:48:59.945Z,100735.75
2022-11-07T01:51:01.757Z,100736.63
2022-11-07T01:53:03.296Z,100733.97
2022-11-07T01:55:13.075Z,100731.28
2022-11-07T01:57:20.981Z,100731.22
2022-11-07T01:59:26.086Z,100740.00
2022-11-07T02:01:27.773Z,100739.09
2022-11-07T02:03:29.303Z,100732.84
2022-11-07T02:05:53.690Z,100735.44
2022-11-07T02:07:56.650Z,100736.31
2022-11-07T02:09:59.133Z,100738.09
2022-11-07T02:12:01.705Z,100747.75
2022-11-07T02:14:03.338Z,100743.28
2022-11-07T02:16:05.452Z,100748.56
2022-11-07T02:18:06.981Z,100749.41
2022-11-07T02:20:09.087Z,100751.09
2022-11-07T02:22:35.042Z,100747.50
2022-11-07T02:24:38.834Z,100746.53
2022-11-07T02:26:41.584Z,100747.34
2022-11-07T02:28:46.116Z,100740.25
2022-11-07T02:30:47.565Z,100744.66
2022-11-07T02:32:49.351Z,100749.03
2022-11-07T02:35:02.915Z,100736.69
2022-11-07T02:37:11.811Z,100740.13
2022-11-07T02:39:13.267Z,100742.78
2022-11-07T02:41:23.339Z,100747.16
2022-11-07T02:43:28.129Z,100740.09
2022-11-07T02:45:33.115Z,100741.88
2022-11-07T02:47:34.536Z,100741.88
2022-11-07T02:49:35.942Z,100741.00
2022-11-07T02:51:37.489Z,100745.44
2022-11-07T02:53:39.005Z,100744.63
2022-11-07T02:55:40.437Z,100736.69
2022-11-07T02:57:42.421Z,100736.78
2022-11-07T02:59:43.835Z,100741.25
2022-11-07T03:01:45.430Z,100737.75
2022-11-07T03:03:49.749Z,100744.81
2022-11-07T03:05:51.197Z,100742.22
2022-11-07T03:07:52.759Z,100741.34
2022-11-07T03:09:54.178Z,100747.53
2022-11-07T03:11:55.599Z,100745.81
2022-11-07T03:13:57.044Z,100759.94
2022-11-07T03:15:58.933Z,100767.88
2022-11-07T03:18:00.403Z,100766.13
2022-11-07T03:20:02.058Z,100772.31
2022-11-07T03:22:03.620Z,100776.66
2022-11-07T03:24:05.623Z,100779.25
2022-11-07T03:26:07.060Z,100773.06
2022-11-07T03:28:08.752Z,100767.72
2022-11-07T03:30:10.693Z,100774.69
2022-11-07T03:32:12.141Z,100780.78
2022-11-07T03:34:13.567Z,100767.53
2022-11-07T03:36:15.005Z,100774.50
2022-11-07T03:38:16.422Z,100765.66
2022-11-07T03:40:18.000Z,100765.59
2022-11-07T03:42:19.438Z,100776.94
2022-11-07T03:44:21.065Z,100774.25
2022-11-07T03:46:22.558Z,100774.19
2022-11-07T03:48:24.112Z,100770.63
2022-11-07T03:50:25.683Z,100767.09
2022-11-07T03:52:27.096Z,100756.50
2022-11-07T03:54:28.554Z,100765.34
2022-11-07T03:56:30.063Z,100783.03
2022-11-07T03:58:31.470Z,100773.38
2022-11-07T04:00:32.910Z,100772.50
2022-11-07T04:02:34.399Z,100776.94
2022-11-07T04:04:35.909Z,100779.63
2022-11-07T04:06:37.347Z,100776.97
2022-11-07T04:08:38.856Z,100774.34
2022-11-07T04:10:40.407Z,100772.66
2022-11-07T04:13:00.322Z,100782.38
2022-11-07T04:15:20.228Z,100775.34
2022-11-07T04:17:21.809Z,100785.97
2022-11-07T04:19:26.411Z,100783.38
2022-11-07T04:21:27.961Z,100789.53
2022-11-07T04:23:29.472Z,100802.72
2022-11-07T04:25:49.490Z,100799.22
2022-11-07T04:27:50.953Z,100790.38
2022-11-07T04:29:52.390Z,100799.09
2022-11-07T04:31:53.833Z,100798.94
2022-11-07T04:33:55.290Z,100803.25
2022-11-07T04:35:56.726Z,100807.59
2022-11-07T04:37:59.027Z,100811.91
2022-11-07T04:40:00.449Z,100809.19
2022-11-07T04:42:01.884Z,100811.75
2022-11-07T04:44:03.370Z,100811.69
2022-11-07T04:46:04.940Z,100809.00
2022-11-07T04:48:06.713Z,100810.69
2022-11-07T04:50:11.074Z,100805.34
2022-11-07T04:52:12.873Z,100815.91
2022-11-07T04:54:16.311Z,100811.56
2022-11-07T04:56:17.740Z,100811.50
2022-11-07T04:58:19.183Z,100803.56
2022-11-07T05:00:21.537Z,100808.84
2022-11-07T05:02:27.626Z,100799.16
2022-11-07T05:04:29.303Z,100800.88
2022-11-07T05:06:35.956Z,100812.38
2022-11-07T05:08:37.377Z,100812.31
2022-11-07T05:10:38.884Z,100812.38
2022-11-07T05:12:40.330Z,100817.66
2022-11-07T05:14:41.818Z,100809.78
2022-11-07T05:16:43.913Z,100815.97
2022-11-07T05:18:45.696Z,100810.78
2022-11-07T05:20:47.126Z,100819.63
2022-11-07T05:23:06.866Z,100823.22
2022-11-07T05:25:08.932Z,100822.41
2022-11-07T05:27:17.673Z,100815.34
2022-11-07T05:29:18.984Z,100818.06
2022-11-07T05:31:20.436Z,100822.47
2022-11-07T05:33:21.933Z,100812.81
2022-11-07T05:35:23.783Z,100813.63
2022-11-07T05:37:25.258Z,100812.78
2022-11-07T05:39:26.668Z,100820.69
2022-11-07T05:41:28.092Z,100831.28
2022-11-07T05:43:29.539Z,100824.22
2022-11-07T05:45:32.166Z,100832.13
2022-11-07T05:47:33.690Z,100821.56
2022-11-07T05:49:35.117Z,100836.56
2022-11-07T05:51:36.586Z,100830.41
2022-11-07T05:53:38.171Z,100839.28
2022-11-07T05:55:39.650Z,100841.03
2022-11-07T05:57:41.076Z,100834.88
2022-11-07T05:59:42.529Z,100838.38
2022-11-07T06:01:46.576Z,100841.91
2022-11-07T06:03:50.288Z,100832.22
2022-11-07T06:05:51.747Z,100831.38
2022-11-07T06:07:53.157Z,100840.16
2022-11-07T06:09:54.591Z,100837.56
2022-11-07T06:11:56.072Z,100852.56
2022-11-07T06:13:57.512Z,100847.28
2022-11-07T06:15:58.949Z,100856.13
2022-11-07T06:18:01.768Z,100863.13
2022-11-07T06:20:04.581Z,100870.16
2022-11-07T06:22:05.990Z,100870.09
2022-11-07T06:24:12.411Z,100869.19
2022-11-07T06:26:16.454Z,100870.06
2022-11-07T06:28:17.928Z,100872.69
2022-11-07T06:30:19.424Z,100871.78
2022-11-07T06:32:20.855Z,100879.69
2022-11-07T06:34:22.315Z,100876.13
2022-11-07T06:36:23.778Z,100885.81
2022-11-07T06:38:25.265Z,100874.22
2022-11-07T06:40:26.751Z,100883.84
2022-11-07T06:42:28.342Z,100874.06
2022-11-07T06:44:29.823Z,100878.34
2022-11-07T06:46:31.314Z,100888.88
2022-11-07T06:48:33.488Z,100877.44
2022-11-07T06:50:35.731Z,100883.59
2022-11-07T06:52:37.222Z,100887.19
2022-11-07T06:54:38.833Z,100885.47
2022-11-07T06:56:40.404Z,100889.94
2022-11-07T06:58:42.050Z,100891.72
2022-11-07T07:00:43.523Z,100894.50
2022-11-07T07:02:58.009Z,100891.94
2022-11-07T07:05:00.380Z,100896.31
2022-11-07T07:07:01.823Z,100891.09
2022-11-07T07:09:06.723Z,100899.06
2022-11-07T07:11:11.115Z,100899.88
2022-11-07T07:13:14.193Z,100899.00
2022-11-07T07:15:15.982Z,100907.75
2022-11-07T07:17:17.404Z,100904.13
2022-11-07T07:19:18.831Z,100902.25
2022-11-07T07:21:20.337Z,100899.41
2022-11-07T07:23:22.035Z,100900.19
2022-11-07T07:25:23.829Z,100899.13
2022-11-07T07:27:25.348Z,100908.69
2022-11-07T07:29:26.816Z,100916.56
2022-11-07T07:31:31.214Z,100927.88
2022-11-07T07:33:32.628Z,100912.75
2022-11-07T07:35:34.042Z,100916.16
2022-11-07T07:37:35.534Z,100909.03
2022-11-07T07:39:37.047Z,100919.50
2022-11-07T07:41:40.364Z,100922.16
2022-11-07T07:43:42.092Z,100922.97
2022-11-07T07:45:43.548Z,100920.28
2022-11-07T07:47:45.221Z,100921.09
2022-11-07T07:49:46.667Z,100920.19
2022-11-07T07:51:48.172Z,100919.25
2022-11-07T07:53:49.604Z,100921.00
2022-11-07T07:55:51.094Z,100920.06
2022-11-07T07:57:52.574Z,100919.16
2022-11-07T07:59:54.017Z,100919.97
2022-11-07T08:01:57.367Z,100926.06
2022-11-07T08:04:01.831Z,100929.53
2022-11-07T08:06:05.605Z,100927.72
2022-11-07T08:08:08.209Z,100931.13
2022-11-07T08:10:34.902Z,100926.63
2022-11-07T08:12:31.246Z,100920.38
2022-11-07T08:14:32.912Z,100931.81
2022-11-07T08:16:34.396Z,100933.50
2022-11-07T08:18:40.811Z,100934.31
2022-11-07T08:20:42.457Z,100934.19
2022-11-07T08:22:43.886Z,100935.00
2022-11-07T08:24:45.376Z,100926.06
2022-11-07T08:26:46.852Z,100940.91
2022-11-07T08:28:48.310Z,100944.31
2022-11-07T08:30:55.932Z,100942.53
2022-11-07T08:33:03.110Z,100943.47
2022-11-07T08:35:04.882Z,100943.41
2022-11-07T08:37:06.317Z,100941.63
2022-11-07T08:39:07.727Z,100944.28
2022-11-07T08:41:09.255Z,100952.22
2022-11-07T08:43:10.979Z,100946.06
2022-11-07T08:45:12.454Z,100950.47
2022-11-07T08:47:14.065Z,100947.84
2022-11-07T08:49:15.650Z,100953.06
2022-11-07T08:51:17.105Z,100952.22
2022-11-07T08:53:18.781Z,100945.09
2022-11-07T08:55:20.519Z,100948.53
2022-11-07T08:57:21.964Z,100953.69
2022-11-07T08:59:23.428Z,100950.94
2022-11-07T09:01:25.024Z,100953.47
2022-11-07T09:05:48.743Z,100965.59
2022-11-07T09:07:50.183Z,100952.34
2022-11-07T09:09:51.616Z,100963.81
2022-11-07T09:11:53.033Z,100954.06
2022-11-07T09:13:55.262Z,100964.66
2022-11-07T09:15:59.299Z,100962.84
2022-11-07T09:18:05.618Z,100962.81
2022-11-07T09:20:09.354Z,100974.16
2022-11-07T09:22:10.794Z,100967.03
2022-11-07T09:24:12.299Z,100961.56
2022-11-07T09:26:13.793Z,100968.47
2022-11-07T09:28:16.041Z,100963.94
2022-11-07T09:30:18.871Z,100970.91
2022-11-07T09:32:43.164Z,100982.31
2022-11-07T09:34:44.928Z,100969.94
2022-11-07T09:36:46.395Z,100978.75
2022-11-07T09:38:47.814Z,100983.19
2022-11-07T09:41:04.715Z,100989.41
2022-11-07T09:43:15.092Z,100986.75
2022-11-07T09:45:16.850Z,100986.75
2022-11-07T09:47:23.451Z,100983.28
2022-11-07T09:49:45.016Z,100980.69
2022-11-07T09:51:52.318Z,100983.41
2022-11-07T09:53:59.984Z,100982.53
2022-11-07T09:56:06.311Z,100990.53
2022-11-07T09:58:20.705Z,100991.47
2022-11-07T10:00:22.736Z,100999.47
2022-11-07T10:02:27.353Z,100999.50
2022-11-07T10:04:29.010Z,101004.88
2022-11-07T10:06:35.548Z,101006.66
2022-11-07T10:09:03.448Z,101006.75
2022-11-07T10:11:15.672Z,101010.31
2022-11-07T10:13:38.824Z,101012.91
2022-11-07T10:16:17.986Z,101015.50
2022-11-07T10:18:37.307Z,101011.94
2022-11-07T10:21:37.720Z,101016.16
2022-11-07T10:23:49.132Z,101017.56
2022-11-07T10:26:02.463Z,101008.50
2022-11-07T10:28:11.730Z,101016.16
2022-11-07T10:30:19.586Z,101008.97
2022-11-07T10:32:20.985Z,101013.22
2022-11-07T10:34:34.989Z,101012.19
2022-11-07T10:36:36.455Z,100998.75
2022-11-07T10:38:41.112Z,101007.28
2022-11-07T10:40:43.717Z,101006.31
2022-11-07T10:42:47.174Z,101004.47
2022-11-07T10:44:49.069Z,101008.78
2022-11-07T10:46:53.403Z,101006.81
2022-11-07T10:48:58.882Z,101001.34
2022-11-07T10:51:00.321Z,101001.22
2022-11-07T10:53:09.694Z,101000.16
2022-11-07T10:55:16.803Z,100991.13
2022-11-07T10:57:22.267Z,100996.31
2022-11-07T10:59:31.433Z,100989.09
2022-11-07T11:01:36.282Z,100992.44
2022-11-07T11:03:45.443Z,101003.44
2022-11-07T11:05:47.398Z,101004.09
2022-11-07T11:07:49.348Z,100995.81
2022-11-07T11:09:54.665Z,101000.88
2022-11-07T11:11:56.231Z,100995.31
2022-11-07T11:14:11.333Z,100991.63
2022-11-07T11:16:22.291Z,100996.00
2022-11-07T11:18:23.874Z,100996.00
2022-11-07T11:20:39.959Z,100995.25
2022-11-07T11:22:42.873Z,100992.00
2022-11-07T11:24:44.547Z,100990.38
2022-11-07T11:26:49.055Z,100995.75
2022-11-07T11:28:57.984Z,100987.00
2022-11-07T11:31:05.153Z,100988.84
2022-11-07T11:33:17.263Z,100984.56
2022-11-07T11:35:42.380Z,100997.00
2022-11-07T11:37:51.466Z,100993.63
2022-11-07T11:39:58.697Z,100999.91
2022-11-07T11:42:00.386Z,100997.19
2022-11-07T11:44:26.650Z,100999.03
2022-11-07T11:46:33.431Z,101001.75
2022-11-07T11:48:44.259Z,100994.53
2022-11-07T11:50:55.171Z,101000.72
2022-11-07T11:52:58.420Z,100999.91
2022-11-07T11:55:01.494Z,100998.06
2022-11-07T11:57:45.852Z,100992.53
2022-11-07T11:59:50.216Z,100994.16
2022-11-07T12:01:58.370Z,100994.94
2022-11-07T12:04:18.620Z,101013.53
2022-11-07T12:06:40.036Z,101003.84
2022-11-07T12:09:00.039Z,101012.72
2022-11-07T12:11:13.560Z,101010.94
2022-11-07T12:13:30.246Z,101013.78
2022-11-07T12:15:52.971Z,101019.22
2022-11-07T12:18:09.591Z,101021.19
2022-11-07T12:20:51.733Z,101012.44
2022-11-07T12:23:05.085Z,101015.03
2022-11-07T12:25:21.297Z,101015.78
2022-11-07T12:27:42.612Z,101011.22
2022-11-07T12:30:11.339Z,101015.50
2022-11-07T12:32:37.193Z,101011.88
2022-11-07T12:35:05.696Z,101016.13
2022-11-07T12:37:48.158Z,101012.53
2022-11-07T12:40:28.587Z,101020.19
2022-11-07T12:42:58.867Z,101013.78
2022-11-07T12:45:19.687Z,101014.53
2022-11-07T12:47:27.241Z,101018.78
2022-11-07T12:49:31.443Z,101021.31
2022-11-07T12:52:00.552Z,101022.19
2022-11-07T12:54:48.445Z,101022.25
2022-11-07T12:56:52.882Z,101016.94
2022-11-07T12:58:54.882Z,101014.22
2022-11-07T13:00:57.297Z,101014.16
2022-11-07T13:03:10.178Z,101014.94
2022-11-07T13:05:38.103Z,101022.00
2022-11-07T13:07:58.368Z,101028.28
2022-11-07T13:10:10.835Z,101022.25
2022-11-07T13:12:36.608Z,101020.50
2022-11-07T13:14:40.775Z,101028.59
2022-11-07T13:16:51.383Z,101023.34
2022-11-07T13:18:53.142Z,101023.34
2022-11-07T13:21:06.147Z,101026.00
2022-11-07T13:23:15.563Z,101018.03
2022-11-07T13:25:17.698Z,101020.75
2022-11-07T13:27:24.776Z,101024.34
2022-11-07T13:29:35.726Z,101020.81
2022-11-07T13:31:40.235Z,101020.75
2022-11-07T13:33:41.687Z,101025.06
2022-11-07T13:35:54.221Z,101018.84
2022-11-07T13:38:08.266Z,101018.78
2022-11-07T13:40:29.442Z,101016.00
2022-11-07T13:42:33.637Z,101018.78
2022-11-07T13:44:38.213Z,101021.31
2022-11-07T13:46:46.768Z,101018.66
2022-11-07T13:48:50.983Z,101026.69
2022-11-07T13:50:59.266Z,101025.69
2022-11-07T13:53:04.600Z,101032.72
2022-11-07T13:55:20.243Z,101033.59
2022-11-07T13:57:31.606Z,101035.38
2022-11-07T13:59:49.949Z,101020.25
2022-11-07T14:01:57.218Z,101025.50
2022-11-07T14:03:58.890Z,101021.00
2022-11-07T14:06:02.527Z,101028.81
2022-11-07T14:08:15.814Z,101028.69
2022-11-07T14:10:28.896Z,101028.69
2022-11-07T14:12:30.838Z,101023.38
2022-11-07T14:14:32.408Z,101034.84
2022-11-07T14:16:34.067Z,101024.09
2022-11-07T14:18:47.446Z,101032.91
2022-11-07T14:20:51.632Z,101029.19
2022-11-07T14:23:00.560Z,101030.06
2022-11-07T14:25:02.046Z,101036.31
2022-11-07T14:27:12.708Z,101031.16
2022-11-07T14:29:21.955Z,101039.25
2022-11-07T14:31:30.793Z,101034.78
2022-11-07T14:33:32.241Z,101045.59
2022-11-07T14:35:35.274Z,101036.84
2022-11-07T14:37:36.706Z,101043.09
2022-11-07T14:39:38.240Z,101038.72
2022-11-07T14:41:42.158Z,101044.88
2022-11-07T14:43:44.885Z,101046.75
2022-11-07T14:46:11.494Z,101038.84
2022-11-07T14:48:12.334Z,101044.16
2022-11-07T14:50:21.996Z,101048.59
2022-11-07T14:52:29.292Z,101046.94
2022-11-07T14:54:37.289Z,101043.47
2022-11-07T14:56:43.071Z,101048.84
2022-11-07T14:58:46.271Z,101045.41
2022-11-07T15:01:12.820Z,101054.41
2022-11-07T15:03:21.738Z,101057.13
2022-11-07T15:05:42.335Z,101056.19
2022-11-07T15:07:48.999Z,101053.66
2022-11-07T15:09:53.298Z,101051.13
2022-11-07T15:11:58.478Z,101049.47
2022-11-07T15:14:01.894Z,101044.34
2022-11-07T15:16:07.011Z,101056.00
2022-11-07T15:18:25.892Z,101052.53
2022-11-07T15:20:36.498Z,101050.94
2022-11-07T15:22:39.690Z,101052.81
2022-11-07T15:24:46.591Z,101055.47
2022-11-07T15:26:59.587Z,101055.56
2022-11-07T15:29:20.886Z,101054.03
2022-11-07T15:31:31.366Z,101060.38
2022-11-07T15:33:32.941Z,101058.81
2022-11-07T15:35:49.766Z,101064.13
2022-11-07T15:38:01.836Z,101063.31
2022-11-07T15:40:13.849Z,101069.47
2022-11-07T15:42:15.723Z,101069.44
2022-11-07T15:44:17.266Z,101067.75
2022-11-07T15:46:22.369Z,101067.81
2022-11-07T15:48:39.799Z,101062.56
2022-11-07T15:50:44.050Z,101069.81
2022-11-07T15:52:47.142Z,101066.38
2022-11-07T15:54:48.632Z,101075.25
2022-11-07T15:56:53.336Z,101076.97
2022-11-07T15:58:59.233Z,101070.13
2022-11-07T16:01:01.002Z,101078.00
2022-11-07T16:03:02.736Z,101065.63
2022-11-07T16:05:04.387Z,101071.78
2022-11-07T16:07:12.100Z,101066.47
2022-11-07T16:09:18.844Z,101074.44
2022-11-07T16:11:20.298Z,101070.97
2022-11-07T16:13:21.826Z,101070.97
2022-11-07T16:15:25.147Z,101067.53
2022-11-07T16:17:26.576Z,101071.16
2022-11-07T16:19:30.213Z,101073.81
2022-11-07T16:21:31.651Z,101079.13
2022-11-07T16:23:33.119Z,101082.66
2022-11-07T16:25:36.022Z,101082.66
2022-11-07T16:27:37.511Z,101082.63
2022-11-07T16:29:40.491Z,101083.53
2022-11-07T16:31:42.107Z,101087.94
2022-11-07T16:33:43.622Z,101091.44
2022-11-07T16:35:47.883Z,101083.53
2022-11-07T16:37:49.432Z,101090.56
2022-11-07T16:39:50.858Z,101087.88
2022-11-07T16:41:52.287Z,101096.63
2022-11-07T16:43:53.817Z,101086.94
2022-11-07T16:45:56.460Z,101085.16
2022-11-07T16:47:59.223Z,101094.91
2022-11-07T16:50:01.168Z,101090.47
2022-11-07T16:52:03.662Z,101097.63
2022-11-07T16:54:05.281Z,101099.34
2022-11-07T16:56:12.566Z,101102.91
2022-11-07T16:58:21.826Z,101092.31
2022-11-07T17:00:23.776Z,101102.00
2022-11-07T17:02:26.105Z,101102.06
2022-11-07T17:04:27.635Z,101099.34
2022-11-07T17:06:34.619Z,101100.22
2022-11-07T17:08:43.498Z,101095.81
2022-11-07T17:10:46.267Z,101097.56
2022-11-07T17:12:47.886Z,101101.19
2022-11-07T17:14:50.200Z,101103.88
2022-11-07T17:16:52.781Z,101109.22
2022-11-07T17:18:54.203Z,101103.88
2022-11-07T17:20:56.420Z,101095.97
2022-11-07T17:22:58.342Z,101104.78
2022-11-07T17:24:59.946Z,101104.78
2022-11-07T17:27:01.661Z,101106.56
2022-11-07T17:29:05.767Z,101108.31
2022-11-07T17:31:07.917Z,101110.19
2022-11-07T17:33:09.405Z,101116.25
2022-11-07T17:35:31.016Z,101116.25
2022-11-07T17:37:32.880Z,101115.38
2022-11-07T17:39:34.348Z,101111.78
2022-11-07T17:41:35.816Z,101113.53
2022-11-07T17:43:37.232Z,101111.78
2022-11-07T17:45:39.673Z,101110.94
2022-11-07T17:47:41.267Z,101118.03
2022-11-07T17:49:42.765Z,101108.31
2022-11-07T17:51:45.142Z,101109.22
2022-11-07T17:53:46.781Z,101099.47
2022-11-07T17:55:48.224Z,101109.09
2022-11-07T17:57:49.749Z,101105.50
2022-11-07T17:59:51.747Z,101107.19
2022-11-07T18:01:53.370Z,101104.53
2022-11-07T18:03:55.338Z,101103.66
2022-11-07T18:05:56.914Z,101111.69
2022-11-07T18:07:58.344Z,101106.38
2022-11-07T18:10:01.853Z,101110.88
2022-11-07T18:12:04.528Z,101110.88
2022-11-07T18:14:05.983Z,101103.00
2022-11-07T18:16:14.161Z,101105.66
2022-11-07T18:18:15.898Z,101108.34
2022-11-07T18:20:17.605Z,101111.13
2022-11-07T18:22:19.116Z,101105.97
2022-11-07T18:24:20.569Z,101114.81
2022-11-07T18:26:30.615Z,101099.88
2022-11-07T18:28:34.166Z,101110.56
2022-11-07T18:30:36.607Z,101110.63
2022-11-07T18:32:38.088Z,101105.38
2022-11-07T18:34:39.621Z,101102.84
2022-11-07T18:36:42.359Z,101100.25
2022-11-07T18:38:44.686Z,101102.09
2022-11-07T18:41:00.961Z,101112.69
2022-11-07T18:43:02.448Z,101109.16
2022-11-07T18:45:04.377Z,101115.28
2022-11-07T18:47:05.911Z,101117.19
2022-11-07T18:49:07.705Z,101115.41
2022-11-07T18:51:21.086Z,101116.31
2022-11-07T18:53:23.565Z,101114.53
2022-11-07T18:55:27.521Z,101121.63
2022-11-07T18:57:29.204Z,101121.63
2022-11-07T18:59:30.694Z,101111.94
2022-11-07T19:01:32.792Z,101122.50
2022-11-07T19:03:35.361Z,101113.66
2022-11-07T19:05:41.024Z,101107.50
2022-11-07T19:07:44.840Z,101106.69
2022-11-07T19:09:46.247Z,101108.53
2022-11-07T19:11:47.836Z,101115.69
2022-11-07T19:13:49.377Z,101112.16
2022-11-07T19:15:50.950Z,101117.50
2022-11-07T19:17:53.061Z,101115.84
2022-11-07T19:19:54.497Z,101119.34
2022-11-07T19:21:56.011Z,101122.00
2022-11-07T19:23:57.526Z,101120.22
2022-11-07T19:25:59.019Z,101120.28
2022-11-07T19:28:00.490Z,101116.72
2022-11-07T19:30:02.004Z,101114.88
2022-11-07T19:32:03.814Z,101120.16
2022-11-07T19:34:05.822Z,101112.22
2022-11-07T19:36:12.299Z,101115.84
2022-11-07T19:38:14.284Z,101114.16
2022-11-07T19:40:15.827Z,101115.94
2022-11-07T19:42:17.256Z,101117.72
2022-11-07T19:44:18.850Z,101111.50
2022-11-07T19:46:22.446Z,101111.50
2022-11-07T19:48:24.005Z,101111.50
2022-11-07T19:50:25.478Z,101113.25
2022-11-07T19:52:26.927Z,101100.03
2022-11-07T19:54:28.368Z,101107.13
2022-11-07T19:56:31.728Z,101110.59
2022-11-07T19:58:35.486Z,101108.84
2022-11-07T20:00:37.004Z,101117.72
2022-11-07T20:02:44.052Z,101116.81
2022-11-07T20:04:46.811Z,101111.59
2022-11-07T20:06:50.222Z,101107.19
2022-11-07T20:08:52.218Z,101119.59
2022-11-07T20:10:53.673Z,101119.63
2022-11-07T20:12:55.680Z,101113.47
2022-11-07T20:14:57.136Z,101114.34
2022-11-07T20:16:59.561Z,101115.25
2022-11-07T20:19:01.634Z,101118.78
2022-11-07T20:21:06.197Z,101119.63
2022-11-07T20:23:07.670Z,101125.84
2022-11-07T20:25:09.481Z,101117.84
2022-11-07T20:27:10.973Z,101124.03
2022-11-07T20:29:13.680Z,101125.84
2022-11-07T20:31:23.628Z,101128.50
2022-11-07T20:33:25.131Z,101123.16
2022-11-07T20:35:26.577Z,101126.56
2022-11-07T20:37:28.041Z,101123.16
2022-11-07T20:39:29.577Z,101120.50
2022-11-07T20:41:31.139Z,101122.28
2022-11-07T20:43:33.981Z,101130.19
2022-11-07T20:45:35.874Z,101135.44
2022-11-07T20:47:37.330Z,101122.13
2022-11-07T20:49:41.264Z,101125.69
2022-11-07T20:51:43.756Z,101131.84
2022-11-07T20:53:50.040Z,101134.50
2022-11-07T20:55:52.171Z,101129.19
2022-11-07T20:57:55.560Z,101133.63
2022-11-07T20:59:57.111Z,101129.16
2022-11-07T21:02:03.011Z,101134.41
2022-11-07T21:04:07.273Z,101127.31
2022-11-07T21:06:11.459Z,101127.31
2022-11-07T21:08:13.055Z,101127.25
2022-11-07T21:10:14.896Z,101134.22
2022-11-07T21:12:16.386Z,101134.22
2022-11-07T21:14:17.815Z,101132.41
2022-11-07T21:16:20.915Z,101133.25
2022-11-07T21:18:22.560Z,101132.28
2022-11-07T21:20:24.658Z,101130.50
2022-11-07T21:22:29.320Z,101127.00
2022-11-07T21:24:31.632Z,101125.16
2022-11-07T21:26:35.891Z,101127.78
2022-11-07T21:28:40.442Z,101128.66
2022-11-07T21:30:41.889Z,101123.34
2022-11-07T21:32:43.393Z,101134.81
2022-11-07T21:34:46.259Z,101128.66
2022-11-07T21:36:47.766Z,101122.47
2022-11-07T21:38:49.480Z,101132.22
2022-11-07T21:40:51.828Z,101130.44
2022-11-07T21:42:54.979Z,101136.63
2022-11-07T21:44:56.652Z,101130.38
2022-11-07T21:46:58.075Z,101129.47
2022-11-07T21:48:59.900Z,101126.75
2022-11-07T21:51:05.436Z,101129.41
2022-11-07T21:53:07.433Z,101135.56
2022-11-07T21:55:08.964Z,101134.66
2022-11-07T21:57:10.840Z,101142.50
2022-11-07T21:59:12.360Z,101128.31
2022-11-07T22:01:13.878Z,101130.94
2022-11-07T22:03:15.664Z,101133.53
2022-11-07T22:05:17.434Z,101130.88
2022-11-07T22:07:18.985Z,101136.13
2022-11-07T22:09:21.311Z,101136.94
2022-11-07T22:11:22.771Z,101133.41
2022-11-07T22:13:24.231Z,101131.63
2022-11-07T22:15:25.664Z,101135.03
2022-11-07T22:17:27.177Z,101135.91
2022-11-07T22:19:28.778Z,101147.38
2022-11-07T22:21:31.449Z,101143.75
2022-11-07T22:23:34.955Z,101147.22
2022-11-07T22:25:36.371Z,101139.25
2022-11-07T22:27:37.879Z,101145.31
2022-11-07T22:29:39.326Z,101142.66
2022-11-07T22:31:40.752Z,101145.25
2022-11-07T22:33:42.222Z,101145.19
2022-11-07T22:35:43.655Z,101142.53
2022-11-07T22:37:45.092Z,101146.00
2022-11-07T22:39:46.603Z,101143.28
2022-11-07T22:41:48.074Z,101145.94
2022-11-07T22:43:50.667Z,101139.72
2022-11-07T22:45:52.592Z,101140.63
2022-11-07T22:47:54.039Z,101134.41
2022-11-07T22:49:55.519Z,101126.50
2022-11-07T22:51:56.995Z,101135.41
2022-11-07T22:54:02.054Z,101131.81
2022-11-07T22:56:15.350Z,101132.75
2022-11-07T22:58:16.979Z,101130.19
2022-11-07T23:00:21.817Z,101132.84
2022-11-07T23:02:23.762Z,101126.78
2022-11-07T23:04:28.686Z,101130.38
2022-11-07T23:06:34.151Z,101127.84
2022-11-07T23:08:36.129Z,101128.81
2022-11-07T23:10:37.625Z,101125.41
2022-11-07T23:12:39.076Z,101127.19
2022-11-07T23:14:40.522Z,101125.50
2022-11-07T23:16:48.204Z,101128.28
2022-11-07T23:18:49.727Z,101131.03
2022-11-07T23:21:26.571Z,101137.09
2022-11-07T23:23:28.016Z,101134.59
2022-11-07T23:25:29.497Z,101128.38
2022-11-07T23:27:30.953Z,101128.44
2022-11-07T23:29:32.395Z,101132.00
2022-11-07T23:31:34.199Z,101125.03
2022-11-07T23:33:37.037Z,101123.34
2022-11-07T23:35:38.651Z,101129.50
2022-11-07T23:37:40.073Z,101126.00
2022-11-07T23:39:42.165Z,101125.16
2022-11-07T23:41:44.600Z,101130.44
2022-11-07T23:43:49.830Z,101124.41
2022-11-07T23:46:12.155Z,101127.09
2022-11-07T23:48:32.446Z,101127.19